createdAt,value
2018-09-08T00:02:23.249Z,8.07
2018-09-08T00:04:55.274Z,7.90
2018-09-08T00:07:33.182Z,9.90
2018-09-08T00:10:06.694Z,6.03
2018-09-08T00:12:38.764Z,14.03
2018-09-08T00:15:16.644Z,5.30
2018-09-08T00:17:54.635Z,5.13
2018-09-08T00:20:32.562Z,5.67
2018-09-08T00:23:10.435Z,5.07
2018-09-08T00:25:48.295Z,10.77
2018-09-08T00:28:27.194Z,7.90
2018-09-08T00:30:59.593Z,9.90
2018-09-08T00:33:31.620Z,9.17
2018-09-08T00:36:03.722Z,7.57
2018-09-08T00:38:36.164Z,8.87
2018-09-08T00:41:08.370Z,6.40
2018-09-08T00:43:40.461Z,15.47
2018-09-08T00:46:12.518Z,6.13
2018-09-08T00:48:44.515Z,12.33
2018-09-08T00:51:16.604Z,10.83
2018-09-08T00:53:48.658Z,5.77
2018-09-08T00:56:20.686Z,9.83
2018-09-08T00:58:58.434Z,6.43
2018-09-08T01:01:30.990Z,9.97
2018-09-08T01:04:03.084Z,11.57
2018-09-08T01:06:35.111Z,6.83
2018-09-08T01:09:07.381Z,12.83
2018-09-08T01:11:39.479Z,9.10
2018-09-08T01:14:11.525Z,8.23
2018-09-08T01:16:43.546Z,7.80
2018-09-08T01:19:15.793Z,9.47
2018-09-08T01:21:47.942Z,7.57
2018-09-08T01:24:20.027Z,11.07
2018-09-08T01:26:52.091Z,13.17
2018-09-08T01:29:24.199Z,5.67
2018-09-08T01:31:58.503Z,8.03
2018-09-08T01:34:30.664Z,15.73
2018-09-08T01:37:02.721Z,13.73
2018-09-08T01:39:34.804Z,8.80
2018-09-08T01:42:06.868Z,10.30
2018-09-08T01:44:39.002Z,7.60
2018-09-08T01:47:11.124Z,9.67
2018-09-08T01:49:43.251Z,12.30
2018-09-08T01:52:15.364Z,16.27
2018-09-08T01:54:47.473Z,9.03
2018-09-08T01:57:19.494Z,6.63
2018-09-08T01:59:51.592Z,23.47
2018-09-08T02:02:23.777Z,11.73
2018-09-08T02:04:55.866Z,8.87
2018-09-08T02:07:27.955Z,9.47
2018-09-08T02:09:59.998Z,9.20
2018-09-08T02:12:32.019Z,13.93
2018-09-08T02:15:04.110Z,9.23
2018-09-08T02:17:36.222Z,6.37
2018-09-08T02:20:08.739Z,10.20
2018-09-08T02:22:40.775Z,7.50
2018-09-08T02:25:12.865Z,9.40
2018-09-08T02:27:44.929Z,8.37
2018-09-08T02:30:16.983Z,8.90
2018-09-08T02:32:49.047Z,7.27
2018-09-08T02:35:21.166Z,8.87
2018-09-08T02:37:53.297Z,7.43
2018-09-08T02:40:25.396Z,8.73
2018-09-08T02:42:57.460Z,12.17
2018-09-08T02:45:29.508Z,11.67
2018-09-08T02:48:01.558Z,8.00
2018-09-08T02:50:36.921Z,11.17
2018-09-08T02:53:09.243Z,7.23
2018-09-08T02:55:41.029Z,9.10
2018-09-08T02:58:12.284Z,7.60
2018-09-08T03:00:43.531Z,8.30
2018-09-08T03:03:14.791Z,9.30
2018-09-08T03:05:46.090Z,11.40
2018-09-08T03:08:17.287Z,10.77
2018-09-08T03:10:48.513Z,9.87
2018-09-08T03:13:19.762Z,12.10
2018-09-08T03:15:51.007Z,11.40
2018-09-08T03:18:22.399Z,9.00
2018-09-08T03:20:53.664Z,8.93
2018-09-08T03:23:24.907Z,12.17
2018-09-08T03:25:56.279Z,12.13
2018-09-08T03:28:27.628Z,14.00
2018-09-08T03:30:58.879Z,20.47
2018-09-08T03:33:30.176Z,12.17
2018-09-08T03:36:01.388Z,11.03
2018-09-08T03:38:32.816Z,10.17
2018-09-08T03:41:04.063Z,15.60
2018-09-08T03:43:35.306Z,12.80
2018-09-08T03:46:06.647Z,12.70
2018-09-08T03:48:37.881Z,11.77
2018-09-08T03:51:09.216Z,10.23
2018-09-08T03:53:40.475Z,10.87
2018-09-08T03:56:11.763Z,13.93
2018-09-08T03:58:42.970Z,11.03
2018-09-08T04:01:14.239Z,11.17
2018-09-08T04:03:46.281Z,10.07
2018-09-08T04:06:18.386Z,14.50
2018-09-08T04:08:50.523Z,12.53
2018-09-08T04:11:22.642Z,13.20
2018-09-08T04:13:54.654Z,16.83
2018-09-08T04:16:26.742Z,11.07
2018-09-08T04:18:58.762Z,14.67
2018-09-08T04:21:30.956Z,16.03
2018-09-08T04:24:03.089Z,20.87
2018-09-08T04:26:35.231Z,25.23
2018-09-08T04:29:07.362Z,23.63
2018-09-08T04:31:39.389Z,35.53
2018-09-08T04:34:11.552Z,28.37
2018-09-08T04:36:43.578Z,19.37
2018-09-08T04:39:15.875Z,17.03
2018-09-08T04:41:47.957Z,15.50
2018-09-08T04:44:20.045Z,22.23
2018-09-08T04:46:52.132Z,19.93
2018-09-08T04:49:24.238Z,14.33
2018-09-08T04:51:56.299Z,16.73
2018-09-08T04:54:28.358Z,17.47
2018-09-08T04:57:00.444Z,14.30
2018-09-08T04:59:32.593Z,15.07
2018-09-08T05:02:04.626Z,17.97
2018-09-08T05:04:36.725Z,13.67
2018-09-08T05:07:08.830Z,17.03
2018-09-08T05:09:40.903Z,11.37
2018-09-08T05:12:13.066Z,22.70
2018-09-08T05:14:45.091Z,14.50
2018-09-08T05:17:17.253Z,16.57
2018-09-08T05:19:49.600Z,16.97
2018-09-08T05:22:21.723Z,15.70
2018-09-08T05:24:53.878Z,14.10
2018-09-08T05:27:26.166Z,15.57
2018-09-08T05:29:58.366Z,20.50
2018-09-08T05:32:30.498Z,16.30
2018-09-08T05:35:02.726Z,18.50
2018-09-08T05:37:34.814Z,14.13
2018-09-08T05:40:10.732Z,20.17
2018-09-08T05:42:42.844Z,12.07
2018-09-08T05:45:14.947Z,14.03
2018-09-08T05:47:46.989Z,9.70
2018-09-08T05:50:19.084Z,14.63
2018-09-08T05:52:51.225Z,13.43
2018-09-08T05:55:23.312Z,8.67
2018-09-08T05:57:55.333Z,9.77
2018-09-08T06:00:27.472Z,17.37
2018-09-08T06:02:59.537Z,9.47
2018-09-08T06:05:31.588Z,9.20
2018-09-08T06:08:03.624Z,11.77
2018-09-08T06:10:35.696Z,9.37
2018-09-08T06:13:07.812Z,6.57
2018-09-08T06:15:39.908Z,12.63
2018-09-08T06:18:12.083Z,11.10
2018-09-08T06:20:44.226Z,6.30
2018-09-08T06:23:16.307Z,5.93
2018-09-08T06:25:48.486Z,6.83
2018-09-08T06:28:20.652Z,5.43
2018-09-08T06:30:53.347Z,5.67
2018-09-08T06:33:25.509Z,5.73
2018-09-08T06:35:57.554Z,3.80
2018-09-08T06:38:29.602Z,7.63
2018-09-08T06:41:01.671Z,7.57
2018-09-08T06:43:34.146Z,5.87
2018-09-08T06:46:06.712Z,6.93
2018-09-08T06:48:38.823Z,9.03
2018-09-08T06:51:12.535Z,3.75
2018-09-08T06:53:45.090Z,7.45
2018-09-08T06:56:18.850Z,8.90
2018-09-08T06:58:53.624Z,4.30
2018-09-08T07:01:26.035Z,9.83
2018-09-08T07:03:58.697Z,4.12
2018-09-08T07:06:32.572Z,6.20
2018-09-08T07:09:07.293Z,11.05
2018-09-08T07:11:41.583Z,5.05
2018-09-08T07:14:13.705Z,4.60
2018-09-08T07:16:50.489Z,6.78
2018-09-08T07:19:23.664Z,6.87
2018-09-08T07:21:56.897Z,2.58
2018-09-08T07:24:29.344Z,3.70
2018-09-08T07:27:02.351Z,5.10
2018-09-08T07:29:34.924Z,4.75
2018-09-08T07:32:08.309Z,3.40
2018-09-08T07:34:40.686Z,5.20
2018-09-08T07:37:12.918Z,5.20
2018-09-08T07:39:45.174Z,6.58
2018-09-08T07:42:17.198Z,3.50
2018-09-08T07:44:49.245Z,6.85
2018-09-08T07:47:21.314Z,5.35
2018-09-08T07:49:53.311Z,9.15
2018-09-08T07:52:25.418Z,15.03
2018-09-08T07:54:57.576Z,21.42
2018-09-08T07:57:29.644Z,9.98
2018-09-08T08:00:01.690Z,5.83
2018-09-08T08:02:33.768Z,5.83
2018-09-08T08:05:05.822Z,4.85
2018-09-08T08:07:37.927Z,4.85
2018-09-08T08:10:10.068Z,6.83
2018-09-08T08:12:42.110Z,8.25
2018-09-08T08:15:14.150Z,6.95
2018-09-08T08:17:46.186Z,3.22
2018-09-08T08:20:18.232Z,8.70
2018-09-08T08:22:50.306Z,8.35
2018-09-08T08:25:22.337Z,3.77
2018-09-08T08:27:54.405Z,4.15
2018-09-08T08:30:26.425Z,5.53
2018-09-08T08:32:58.462Z,6.92
2018-09-08T08:35:30.528Z,4.70
2018-09-08T08:38:02.572Z,7.60
2018-09-08T08:40:34.607Z,8.03
2018-09-08T08:43:06.703Z,4.55
2018-09-08T08:45:38.698Z,6.65
2018-09-08T08:48:10.769Z,7.42
2018-09-08T08:50:54.488Z,8.73
2018-09-08T08:53:38.082Z,8.63
2018-09-08T08:56:10.151Z,4.95
2018-09-08T08:58:42.206Z,9.78
2018-09-08T09:01:14.218Z,6.30
2018-09-08T09:03:46.259Z,14.50
2018-09-08T09:06:18.261Z,17.73
2018-09-08T09:08:52.641Z,9.25
2018-09-08T09:11:25.043Z,5.03
2018-09-08T09:13:57.075Z,4.35
2018-09-08T09:16:29.111Z,7.42
2018-09-08T09:19:24.694Z,3.75
2018-09-08T09:22:08.330Z,4.42
2018-09-08T09:24:52.770Z,4.22
2018-09-08T09:27:24.606Z,4.67
2018-09-08T09:29:57.009Z,15.08
2018-09-08T09:32:29.076Z,9.60
2018-09-08T09:35:01.192Z,4.03
2018-09-08T09:37:33.434Z,7.83
2018-09-08T09:40:06.338Z,5.20
2018-09-08T09:42:38.453Z,5.58
2018-09-08T09:45:11.057Z,7.22
2018-09-08T09:47:43.183Z,8.38
2018-09-08T09:50:15.231Z,5.20
2018-09-08T09:52:47.228Z,8.20
2018-09-08T09:55:19.257Z,6.12
2018-09-08T09:57:51.251Z,5.92
2018-09-08T10:00:29.033Z,5.65
2018-09-08T10:03:06.287Z,6.95
2018-09-08T10:05:38.434Z,7.37
2018-09-08T10:08:10.473Z,5.65
2018-09-08T10:13:21.206Z,5.35
2018-09-08T10:15:53.282Z,12.95
2018-09-08T10:18:25.390Z,4.78
2018-09-08T10:20:57.436Z,6.92
2018-09-08T10:23:29.537Z,7.90
2018-09-08T10:26:01.649Z,5.37
2018-09-08T10:28:33.662Z,3.42
2018-09-08T10:31:05.683Z,6.67
2018-09-08T10:33:37.731Z,4.15
2018-09-08T10:36:09.715Z,6.28
2018-09-08T10:38:41.778Z,5.33
2018-09-08T10:41:13.764Z,3.22
2018-09-08T10:43:45.799Z,4.92
2018-09-08T10:46:17.860Z,3.42
2018-09-08T10:48:49.913Z,7.25
2018-09-08T10:52:34.175Z,5.20
2018-09-08T10:55:06.257Z,6.25
2018-09-08T10:57:38.259Z,5.28
2018-09-08T11:00:11.187Z,6.85
2018-09-08T11:02:43.559Z,5.95
2018-09-08T11:05:15.953Z,7.83
2018-09-08T11:07:47.999Z,7.92
2018-09-08T11:10:20.645Z,4.37
2018-09-08T11:12:53.170Z,3.95
2018-09-08T11:15:25.284Z,4.03
2018-09-08T11:17:57.497Z,4.95
2018-09-08T11:20:29.500Z,4.83
2018-09-08T11:23:01.503Z,3.37
2018-09-08T11:25:33.558Z,3.60
2018-09-08T11:28:05.562Z,2.92
2018-09-08T11:30:37.643Z,2.85
2018-09-08T11:33:09.580Z,3.83
2018-09-08T11:35:41.566Z,4.92
2018-09-08T11:38:13.655Z,2.70
2018-09-08T11:40:45.653Z,5.35
2018-09-08T11:43:17.734Z,7.25
2018-09-08T11:45:49.786Z,5.67
2018-09-08T11:48:21.823Z,4.65
2018-09-08T11:50:53.993Z,5.33
2018-09-08T11:53:26.066Z,3.45
2018-09-08T11:55:58.097Z,3.95
2018-09-08T11:58:30.134Z,2.47
2018-09-08T12:01:02.170Z,3.52
2018-09-08T12:03:34.271Z,3.25
2018-09-08T12:06:06.285Z,2.47
2018-09-08T12:08:38.306Z,3.25
2018-09-08T12:11:10.350Z,3.92
2018-09-08T12:13:42.395Z,3.77
2018-09-08T12:16:14.458Z,3.75
2018-09-08T12:18:46.514Z,5.75
2018-09-08T12:21:18.733Z,5.28
2018-09-08T12:23:50.797Z,3.47
2018-09-08T12:26:22.835Z,6.45
2018-09-08T12:28:54.918Z,3.30
2018-09-08T12:31:26.962Z,0.50
2018-09-08T12:33:59.070Z,2.33
2018-09-08T12:36:31.114Z,4.92
2018-09-08T12:39:04.697Z,4.22
2018-09-08T12:41:36.724Z,9.35
2018-09-08T12:44:08.783Z,4.47
2018-09-08T12:46:40.811Z,3.83
2018-09-08T12:49:12.863Z,3.25
2018-09-08T12:51:44.849Z,7.58
2018-09-08T12:54:16.979Z,7.45
2018-09-08T12:56:48.973Z,4.42
2018-09-08T12:59:21.039Z,4.85
2018-09-08T13:01:53.083Z,3.60
2018-09-08T13:04:25.115Z,4.87
2018-09-08T13:06:57.126Z,5.65
2018-09-08T13:09:29.173Z,7.15
2018-09-08T13:12:01.214Z,3.65
2018-09-08T13:14:33.236Z,3.80
2018-09-08T13:17:05.249Z,3.40
2018-09-08T13:19:37.274Z,2.47
2018-09-08T13:22:09.316Z,8.83
2018-09-08T13:24:41.343Z,9.03
2018-09-08T13:27:13.362Z,6.42
2018-09-08T13:29:45.351Z,6.53
2018-09-08T13:32:17.389Z,3.98
2018-09-08T13:34:49.463Z,4.65
2018-09-08T13:37:21.641Z,4.22
2018-09-08T13:39:53.754Z,6.15
2018-09-08T13:42:25.673Z,5.55
2018-09-08T13:44:57.713Z,3.45
2018-09-08T13:47:29.774Z,4.65
2018-09-08T13:50:01.813Z,2.58
2018-09-08T13:52:33.814Z,1.70
2018-09-08T13:55:05.907Z,8.63
2018-09-08T13:57:37.902Z,7.70
2018-09-08T14:00:09.927Z,4.40
2018-09-08T14:02:42.048Z,2.60
2018-09-08T14:05:14.138Z,4.05
2018-09-08T14:07:49.062Z,3.17
2018-09-08T14:10:21.069Z,4.67
2018-09-08T14:12:53.159Z,6.20
2018-09-08T14:15:25.230Z,5.00
2018-09-08T14:17:57.323Z,8.60
2018-09-08T14:20:29.345Z,3.37
2018-09-08T14:23:01.379Z,2.75
2018-09-08T14:25:33.405Z,3.17
2018-09-08T14:28:05.483Z,4.90
2018-09-08T14:30:37.493Z,3.55
2018-09-08T14:33:09.501Z,6.97
2018-09-08T14:35:41.545Z,2.77
2018-09-08T14:38:13.774Z,7.97
2018-09-08T14:40:45.842Z,5.62
2018-09-08T14:43:17.915Z,10.82
2018-09-08T14:45:50.152Z,8.33
2018-09-08T14:48:22.234Z,7.60
2018-09-08T14:50:54.240Z,2.20
2018-09-08T14:53:26.304Z,7.25
2018-09-08T14:55:58.351Z,3.10
2018-09-08T14:58:30.468Z,3.67
2018-09-08T15:01:02.532Z,3.20
2018-09-08T15:03:34.945Z,5.95
2018-09-08T15:06:06.974Z,3.08
2018-09-08T15:08:39.029Z,7.35
2018-09-08T15:11:11.106Z,22.13
2018-09-08T15:13:43.134Z,3.52
2018-09-08T15:16:15.164Z,5.65
2018-09-08T15:18:47.234Z,5.10
2018-09-08T15:21:19.281Z,4.12
2018-09-08T15:23:51.374Z,11.88
2018-09-08T15:26:23.464Z,3.95
2018-09-08T15:28:55.502Z,4.97
2018-09-08T15:31:27.588Z,4.90
2018-09-08T15:33:59.721Z,3.85
2018-09-08T15:36:31.894Z,5.53
2018-09-08T15:39:06.318Z,3.70
2018-09-08T15:41:38.386Z,4.75
2018-09-08T15:44:10.915Z,3.35
2018-09-08T15:46:43.010Z,5.65
2018-09-08T15:49:15.079Z,3.77
2018-09-08T15:51:47.190Z,4.30
2018-09-08T15:54:19.222Z,3.20
2018-09-08T15:56:51.339Z,2.87
2018-09-08T15:59:23.332Z,3.55
2018-09-08T16:01:55.373Z,4.62
2018-09-08T16:04:27.437Z,6.35
2018-09-08T16:06:59.458Z,8.78
2018-09-08T16:09:31.467Z,6.37
2018-09-08T16:12:03.513Z,7.45
2018-09-08T16:14:35.627Z,6.65
2018-09-08T16:17:07.994Z,15.03
2018-09-08T16:19:40.066Z,9.70
2018-09-08T16:22:12.111Z,4.78
2018-09-08T16:24:44.142Z,5.37
2018-09-08T16:27:16.167Z,4.13
2018-09-08T16:29:48.230Z,5.13
2018-09-08T16:32:20.279Z,5.53
2018-09-08T16:34:52.303Z,4.20
2018-09-08T16:37:24.348Z,6.20
2018-09-08T16:39:56.566Z,7.97
2018-09-08T16:42:29.233Z,8.10
2018-09-08T16:45:02.847Z,21.80
2018-09-08T16:47:35.245Z,16.47
2018-09-08T16:50:08.481Z,16.07
2018-09-08T16:52:40.558Z,17.97
2018-09-08T16:55:12.630Z,18.13
2018-09-08T16:57:44.696Z,11.80
2018-09-08T17:00:16.802Z,11.03
2018-09-08T17:02:48.903Z,9.37
2018-09-08T17:05:21.014Z,7.87
2018-09-08T17:07:53.079Z,6.77
2018-09-08T17:10:25.237Z,9.93
2018-09-08T17:12:57.405Z,12.70
2018-09-08T17:15:29.794Z,13.80
2018-09-08T17:18:01.948Z,9.27
2018-09-08T17:20:34.014Z,11.80
2018-09-08T17:23:06.183Z,11.27
2018-09-08T17:25:38.591Z,20.30
2018-09-08T17:28:10.725Z,21.37
2018-09-08T17:30:42.851Z,11.17
2018-09-08T17:33:14.946Z,15.87
2018-09-08T17:35:47.047Z,11.90
2018-09-08T17:38:19.161Z,13.33
2018-09-08T17:40:51.241Z,7.47
2018-09-08T17:43:23.245Z,9.07
2018-09-08T17:45:55.368Z,9.00
2018-09-08T17:48:27.541Z,9.50
2018-09-08T17:50:59.620Z,8.83
2018-09-08T17:53:31.671Z,17.17
2018-09-08T17:56:03.794Z,20.27
2018-09-08T17:58:36.005Z,14.17
2018-09-08T18:01:08.146Z,9.87
2018-09-08T18:03:40.215Z,14.43
2018-09-08T18:06:12.269Z,6.13
2018-09-08T18:08:44.334Z,10.60
2018-09-08T18:11:16.407Z,22.70
2018-09-08T18:13:48.446Z,24.87
2018-09-08T18:16:20.509Z,19.63
2018-09-08T18:18:52.552Z,15.70
2018-09-08T18:21:24.576Z,14.50
2018-09-08T18:23:56.645Z,15.73
2018-09-08T18:26:29.664Z,19.13
2018-09-08T18:29:01.843Z,13.13
2018-09-08T18:31:34.234Z,15.40
2018-09-08T18:34:06.511Z,15.93
2018-09-08T18:36:38.617Z,23.80
2018-09-08T18:39:10.673Z,19.60
2018-09-08T18:41:42.745Z,26.30
2018-09-08T18:44:15.096Z,31.83
2018-09-08T18:46:47.304Z,59.70
2018-09-08T18:49:19.378Z,52.40
2018-09-08T18:51:51.627Z,60.03
2018-09-08T18:54:23.677Z,57.13
2018-09-08T18:56:55.718Z,45.37
2018-09-08T18:59:27.734Z,55.07
2018-09-08T19:01:59.873Z,54.27
2018-09-08T19:04:31.930Z,49.57
2018-09-08T19:07:03.975Z,62.60
2018-09-08T19:09:36.038Z,69.10
2018-09-08T19:12:08.098Z,65.57
2018-09-08T19:14:45.873Z,83.23
2018-09-08T19:17:22.364Z,167.43
2018-09-08T19:20:04.739Z,159.00
2018-09-08T19:22:36.947Z,99.40
2018-09-08T19:25:08.966Z,60.70
2018-09-08T19:27:40.978Z,38.83
2018-09-08T19:30:13.037Z,60.90
2018-09-08T19:32:45.098Z,77.57
2018-09-08T19:35:22.962Z,80.50
2018-09-08T19:37:55.022Z,75.43
2018-09-08T19:40:32.763Z,48.93
2018-09-08T19:43:04.959Z,49.00
2018-09-08T19:45:37.406Z,39.77
2018-09-08T19:48:15.702Z,48.23
2018-09-08T19:50:47.760Z,33.10
2018-09-08T19:53:25.678Z,29.63
2018-09-08T19:55:57.793Z,24.07
2018-09-08T19:58:35.550Z,20.20
2018-09-08T20:01:07.590Z,17.47
2018-09-08T20:03:39.627Z,14.90
2018-09-08T20:06:11.690Z,16.73
2018-09-08T20:08:43.738Z,14.10
2018-09-08T20:11:15.809Z,9.37
2018-09-08T20:13:47.878Z,9.63
2018-09-08T20:16:19.898Z,8.53
2018-09-08T20:18:51.930Z,7.57
2018-09-08T20:21:23.969Z,6.43
2018-09-08T20:23:56.022Z,18.53
2018-09-08T20:26:28.101Z,23.40
2018-09-08T20:29:00.087Z,19.43
2018-09-08T20:31:32.138Z,12.30
2018-09-08T20:34:04.165Z,17.73
2018-09-08T20:36:36.211Z,12.10
2018-09-08T20:39:08.301Z,8.47
2018-09-08T20:41:40.378Z,18.53
2018-09-08T20:44:12.405Z,16.37
2018-09-08T20:46:44.523Z,11.87
2018-09-08T20:49:17.066Z,6.67
2018-09-08T20:51:49.115Z,12.70
2018-09-08T20:54:21.226Z,10.00
2018-09-08T20:56:53.247Z,7.83
2018-09-08T20:59:25.313Z,10.83
2018-09-08T21:01:57.368Z,16.57
2018-09-08T21:04:29.405Z,9.17
2018-09-08T21:07:01.416Z,7.70
2018-09-08T21:09:33.483Z,7.57
2018-09-08T21:12:05.555Z,11.20
2018-09-08T21:14:38.594Z,9.80
2018-09-08T21:17:10.802Z,15.13
2018-09-08T21:19:43.004Z,12.93
2018-09-08T21:22:14.971Z,5.03
2018-09-08T21:24:47.002Z,7.47
2018-09-08T21:27:19.022Z,8.87
2018-09-08T21:29:51.125Z,10.60
2018-09-08T21:32:23.194Z,9.90
2018-09-08T21:34:55.249Z,12.13
2018-09-08T21:37:27.546Z,16.07
2018-09-08T21:39:59.579Z,13.53
2018-09-08T21:42:31.618Z,8.23
2018-09-08T21:45:03.719Z,12.40
2018-09-08T21:47:35.762Z,15.93
2018-09-08T21:50:07.754Z,11.63
2018-09-08T21:52:39.761Z,11.83
2018-09-08T21:55:11.874Z,14.10
2018-09-08T21:57:44.076Z,8.17
2018-09-08T22:00:16.078Z,21.37
2018-09-08T22:02:48.112Z,8.23
2018-09-08T22:05:20.161Z,7.87
2018-09-08T22:07:52.226Z,9.80
2018-09-08T22:10:24.267Z,12.67
2018-09-08T22:12:56.281Z,13.40
2018-09-08T22:15:28.284Z,10.23
2018-09-08T22:18:00.391Z,11.47
2018-09-08T22:20:32.380Z,9.33
2018-09-08T22:23:04.552Z,11.70
2018-09-08T22:25:36.581Z,8.83
2018-09-08T22:28:08.582Z,11.67
2018-09-08T22:30:40.594Z,9.40
2018-09-08T22:33:12.870Z,9.20
2018-09-08T22:35:44.921Z,7.33
2018-09-08T22:38:16.933Z,8.40
2018-09-08T22:40:49.052Z,8.17
2018-09-08T22:43:21.059Z,7.43
2018-09-08T22:45:53.072Z,9.43
2018-09-08T22:48:25.101Z,6.40
2018-09-08T22:50:57.132Z,9.23
2018-09-08T22:53:29.175Z,15.03
2018-09-08T22:56:01.211Z,10.83
2018-09-08T22:58:33.215Z,14.70
2018-09-08T23:01:05.285Z,15.33
2018-09-08T23:03:37.273Z,6.93
2018-09-08T23:06:09.297Z,8.90
2018-09-08T23:08:41.299Z,12.57
2018-09-08T23:11:13.334Z,8.53
2018-09-08T23:13:45.335Z,15.77
2018-09-08T23:16:17.353Z,19.10
2018-09-08T23:18:49.354Z,10.60
2018-09-08T23:21:21.435Z,7.00
2018-09-08T23:23:53.461Z,14.03
2018-09-08T23:26:25.491Z,9.27
2018-09-08T23:28:57.507Z,6.00
2018-09-08T23:31:29.544Z,14.30
2018-09-08T23:34:01.633Z,12.47
2018-09-08T23:36:33.683Z,12.43
2018-09-08T23:39:05.993Z,12.13
2018-09-08T23:41:38.001Z,5.47
2018-09-08T23:44:10.003Z,7.80
2018-09-08T23:46:42.017Z,5.63
2018-09-08T23:49:14.063Z,5.10
2018-09-08T23:51:46.201Z,5.40
2018-09-08T23:54:18.190Z,6.57
2018-09-08T23:56:50.224Z,8.93
2018-09-08T23:59:22.288Z,10.40
